sensor_id;sensor_type;location;lat;lon;timestamp;pressure;altitude;pressure_sealevel;temperature;humidity
8069;BME280;4077;43.702;24.896;2023-03-03T00:01:52;99875.78;;;5.42;100.00
8069;BME280;4077;43.702;24.896;2023-03-03T00:04:18;99864.53;;;5.39;100.00
8069;BME280;4077;43.702;24.896;2023-03-03T00:06:44;99863.91;;;5.44;100.00
8069;BME280;4077;43.702;24.896;2023-03-03T00:09:09;99854.41;;;5.42;100.00
8069;BME280;4077;43.702;24.896;2023-03-03T00:11:35;99858.78;;;5.44;100.00
8069;BME280;4077;43.702;24.896;2023-03-03T00:14:00;99854.81;;;5.53;100.00
8069;BME280;4077;43.702;24.896;2023-03-03T00:16:38;99831.31;;;5.40;100.00
8069;BME280;4077;43.702;24.896;2023-03-03T00:19:17;99848.63;;;5.47;100.00
8069;BME280;4077;43.702;24.896;2023-03-03T00:21:48;99846.78;;;5.43;100.00
8069;BME280;4077;43.702;24.896;2023-03-03T00:24:14;99839.69;;;5.36;100.00
8069;BME280;4077;43.702;24.896;2023-03-03T00:26:52;99839.94;;;5.42;100.00
8069;BME280;4077;43.702;24.896;2023-03-03T00:31:49;99831.25;;;5.39;100.00
8069;BME280;4077;43.702;24.896;2023-03-03T00:36:45;99817.13;;;5.26;100.00
8069;BME280;4077;43.702;24.896;2023-03-03T00:41:58;99823.28;;;5.31;100.00
8069;BME280;4077;43.702;24.896;2023-03-03T00:44:45;99812.13;;;5.29;100.00
8069;BME280;4077;43.702;24.896;2023-03-03T00:47:31;99815.56;;;5.30;100.00
8069;BME280;4077;43.702;24.896;2023-03-03T00:52:34;99805.69;;;5.16;100.00
8069;BME280;4077;43.702;24.896;2023-03-03T00:55:01;99798.63;;;5.11;100.00
8069;BME280;4077;43.702;24.896;2023-03-03T00:57:26;99798.06;;;5.18;100.00
8069;BME280;4077;43.702;24.896;2023-03-03T00:59:52;99801.75;;;5.26;100.00
8069;BME280;4077;43.702;24.896;2023-03-03T01:02:17;99791.44;;;5.23;100.00
8069;BME280;4077;43.702;24.896;2023-03-03T01:04:49;99793.28;;;5.27;100.00
8069;BME280;4077;43.702;24.896;2023-03-03T01:07:14;99788.81;;;5.21;100.00
8069;BME280;4077;43.702;24.896;2023-03-03T01:09:40;99788.59;;;5.15;100.00
8069;BME280;4077;43.702;24.896;2023-03-03T01:12:05;99759.69;;;4.96;100.00
8069;BME280;4077;43.702;24.896;2023-03-03T01:14:31;99780.59;;;5.08;100.00
8069;BME280;4077;43.702;24.896;2023-03-03T01:16:57;99774.75;;;5.10;100.00
8069;BME280;4077;43.702;24.896;2023-03-03T01:19:22;99773.91;;;5.11;100.00
8069;BME280;4077;43.702;24.896;2023-03-03T01:21:48;99768.53;;;5.04;100.00
8069;BME280;4077;43.702;24.896;2023-03-03T01:24:13;99773.91;;;5.11;100.00
8069;BME280;4077;43.702;24.896;2023-03-03T01:26:39;99773.72;;;5.07;100.00
8069;BME280;4077;43.702;24.896;2023-03-03T01:29:04;99767.66;;;5.03;100.00
8069;BME280;4077;43.702;24.896;2023-03-03T01:31:30;99771.06;;;5.04;100.00
8069;BME280;4077;43.702;24.896;2023-03-03T01:33:55;99777.75;;;5.00;100.00
8069;BME280;4077;43.702;24.896;2023-03-03T01:36:25;99776.00;;;4.99;100.00
8069;BME280;4077;43.702;24.896;2023-03-03T01:38:51;99771.94;;;5.04;100.00
8069;BME280;4077;43.702;24.896;2023-03-03T01:41:16;99775.84;;;5.17;100.00
8069;BME280;4077;43.702;24.896;2023-03-03T01:43:44;99774.34;;;5.22;100.00
8069;BME280;4077;43.702;24.896;2023-03-03T01:46:30;99770.69;;;5.15;100.00
8069;BME280;4077;43.702;24.896;2023-03-03T01:49:01;99767.88;;;5.09;100.00
8069;BME280;4077;43.702;24.896;2023-03-03T01:51:30;99771.59;;;5.17;100.00
8069;BME280;4077;43.702;24.896;2023-03-03T01:53:59;99767.34;;;5.18;100.00
8069;BME280;4077;43.702;24.896;2023-03-03T01:56:25;99768.44;;;5.25;100.00
8069;BME280;4077;43.702;24.896;2023-03-03T01:59:00;99764.28;;;5.28;100.00
8069;BME280;4077;43.702;24.896;2023-03-03T02:01:28;99763.38;;;5.26;100.00
8069;BME280;4077;43.702;24.896;2023-03-03T02:03:56;99758.63;;;5.13;100.00
8069;BME280;4077;43.702;24.896;2023-03-03T02:06:25;99763.97;;;5.19;100.00
8069;BME280;4077;43.702;24.896;2023-03-03T02:09:00;99753.63;;;5.16;100.00
8069;BME280;4077;43.702;24.896;2023-03-03T02:11:30;99756.06;;;5.13;100.00
8069;BME280;4077;43.702;24.896;2023-03-03T02:13:56;99744.66;;;5.05;100.00
8069;BME280;4077;43.702;24.896;2023-03-03T02:16:22;99752.41;;;5.06;100.00
8069;BME280;4077;43.702;24.896;2023-03-03T02:18:47;99748.06;;;5.04;100.00
8069;BME280;4077;43.702;24.896;2023-03-03T02:21:20;99755.41;;;5.18;100.00
8069;BME280;4077;43.702;24.896;2023-03-03T02:26:21;99752.34;;;5.05;100.00
8069;BME280;4077;43.702;24.896;2023-03-03T02:28:48;99735.63;;;4.90;100.00
8069;BME280;4077;43.702;24.896;2023-03-03T02:31:17;99746.19;;;5.00;100.00
8069;BME280;4077;43.702;24.896;2023-03-03T02:33:45;99743.34;;;4.92;100.00
8069;BME280;4077;43.702;24.896;2023-03-03T02:36:17;99745.84;;;4.90;100.00
8069;BME280;4077;43.702;24.896;2023-03-03T02:41:10;99750.72;;;4.84;100.00
8069;BME280;4077;43.702;24.896;2023-03-03T02:46:21;99733.94;;;4.69;100.00
8069;BME280;4077;43.702;24.896;2023-03-03T02:48:46;99727.19;;;4.71;100.00
8069;BME280;4077;43.702;24.896;2023-03-03T02:51:12;99740.25;;;4.78;100.00
8069;BME280;4077;43.702;24.896;2023-03-03T02:53:37;99719.31;;;4.66;100.00
8069;BME280;4077;43.702;24.896;2023-03-03T02:56:03;99728.38;;;4.80;100.00
8069;BME280;4077;43.702;24.896;2023-03-03T02:58:29;99730.41;;;4.87;100.00
8069;BME280;4077;43.702;24.896;2023-03-03T03:00:55;99735.94;;;5.00;100.00
8069;BME280;4077;43.702;24.896;2023-03-03T03:03:21;99737.91;;;5.07;100.00
8069;BME280;4077;43.702;24.896;2023-03-03T03:05:46;99742.13;;;5.05;100.00
8069;BME280;4077;43.702;24.896;2023-03-03T03:08:12;99743.03;;;5.07;100.00
8069;BME280;4077;43.702;24.896;2023-03-03T03:10:37;99738.63;;;5.03;100.00
8069;BME280;4077;43.702;24.896;2023-03-03T03:13:03;99730.97;;;5.03;100.00
8069;BME280;4077;43.702;24.896;2023-03-03T03:15:28;99737.69;;;5.01;100.00
8069;BME280;4077;43.702;24.896;2023-03-03T03:17:53;99730.50;;;4.90;100.00
8069;BME280;4077;43.702;24.896;2023-03-03T03:20:19;99731.66;;;4.99;100.00
8069;BME280;4077;43.702;24.896;2023-03-03T03:22:44;99736.94;;;5.03;100.00
8069;BME280;4077;43.702;24.896;2023-03-03T03:25:10;99735.44;;;5.08;100.00
8069;BME280;4077;43.702;24.896;2023-03-03T03:27:35;99740.75;;;5.14;100.00
8069;BME280;4077;43.702;24.896;2023-03-03T03:30:00;99732.81;;;5.07;100.00
8069;BME280;4077;43.702;24.896;2023-03-03T03:32:26;99730.84;;;5.00;100.00
8069;BME280;4077;43.702;24.896;2023-03-03T03:34:52;99722.78;;;4.89;100.00
8069;BME280;4077;43.702;24.896;2023-03-03T03:37:17;99683.53;;;4.66;100.00
8069;BME280;4077;43.702;24.896;2023-03-03T03:39:43;99727.25;;;4.94;100.00
8069;BME280;4077;43.702;24.896;2023-03-03T03:42:08;99732.69;;;5.04;100.00
8069;BME280;4077;43.702;24.896;2023-03-03T03:44:34;99734.53;;;5.08;100.00
8069;BME280;4077;43.702;24.896;2023-03-03T03:46:59;99734.44;;;5.05;100.00
8069;BME280;4077;43.702;24.896;2023-03-03T03:49:24;99736.91;;;5.02;100.00
8069;BME280;4077;43.702;24.896;2023-03-03T03:51:50;99734.25;;;5.00;100.00
8069;BME280;4077;43.702;24.896;2023-03-03T03:54:15;99729.22;;;5.02;100.00
8069;BME280;4077;43.702;24.896;2023-03-03T03:56:43;99716.44;;;5.02;100.00
8069;BME280;4077;43.702;24.896;2023-03-03T03:59:10;99710.31;;;4.98;100.00
8069;BME280;4077;43.702;24.896;2023-03-03T04:01:36;99718.22;;;5.04;100.00
8069;BME280;4077;43.702;24.896;2023-03-03T04:04:01;99710.31;;;4.98;100.00
8069;BME280;4077;43.702;24.896;2023-03-03T04:06:28;99695.66;;;4.94;100.00
8069;BME280;4077;43.702;24.896;2023-03-03T04:08:54;99696.66;;;4.98;100.00
8069;BME280;4077;43.702;24.896;2023-03-03T04:11:19;99705.16;;;4.97;100.00
8069;BME280;4077;43.702;24.896;2023-03-03T04:13:45;99714.63;;;4.99;100.00
8069;BME280;4077;43.702;24.896;2023-03-03T04:16:10;99722.25;;;4.98;100.00
8069;BME280;4077;43.702;24.896;2023-03-03T04:18:36;99719.88;;;5.02;100.00
8069;BME280;4077;43.702;24.896;2023-03-03T04:21:01;99716.19;;;4.96;100.00
8069;BME280;4077;43.702;24.896;2023-03-03T04:23:27;99718.75;;;4.96;100.00
8069;BME280;4077;43.702;24.896;2023-03-03T04:25:52;99721.56;;;5.02;100.00
8069;BME280;4077;43.702;24.896;2023-03-03T04:28:17;99714.84;;;5.05;100.00
8069;BME280;4077;43.702;24.896;2023-03-03T04:30:43;99712.88;;;4.98;100.00
8069;BME280;4077;43.702;24.896;2023-03-03T04:33:08;99698.94;;;4.90;100.00
8069;BME280;4077;43.702;24.896;2023-03-03T04:35:34;99706.66;;;4.91;100.00
8069;BME280;4077;43.702;24.896;2023-03-03T04:37:59;99705.16;;;4.97;100.00
8069;BME280;4077;43.702;24.896;2023-03-03T04:40:25;99715.84;;;5.09;100.00
8069;BME280;4077;43.702;24.896;2023-03-03T04:42:50;99706.53;;;5.11;100.00
8069;BME280;4077;43.702;24.896;2023-03-03T04:45:16;99707.22;;;5.07;100.00
8069;BME280;4077;43.702;24.896;2023-03-03T04:47:42;99700.13;;;5.00;100.00
8069;BME280;4077;43.702;24.896;2023-03-03T04:50:08;99694.78;;;4.93;100.00
8069;BME280;4077;43.702;24.896;2023-03-03T04:52:34;99698.06;;;4.89;100.00
8069;BME280;4077;43.702;24.896;2023-03-03T04:55:00;99696.56;;;4.94;100.00
8069;BME280;4077;43.702;24.896;2023-03-03T04:57:25;99712.22;;;5.04;100.00
8069;BME280;4077;43.702;24.896;2023-03-03T04:59:51;99708.03;;;5.06;100.00
8069;BME280;4077;43.702;24.896;2023-03-03T05:02:16;99698.63;;;5.05;100.00
8069;BME280;4077;43.702;24.896;2023-03-03T05:04:42;99686.25;;;4.93;100.00
8069;BME280;4077;43.702;24.896;2023-03-03T05:07:08;99696.66;;;4.98;100.00
8069;BME280;4077;43.702;24.896;2023-03-03T05:09:34;99662.63;;;4.76;100.00
8069;BME280;4077;43.702;24.896;2023-03-03T05:11:59;99697.66;;;5.01;100.00
8069;BME280;4077;43.702;24.896;2023-03-03T05:14:26;99696.88;;;5.04;100.00
8069;BME280;4077;43.702;24.896;2023-03-03T05:16:51;99688.16;;;4.99;100.00
8069;BME280;4077;43.702;24.896;2023-03-03T05:19:17;99694.09;;;4.98;100.00
8069;BME280;4077;43.702;24.896;2023-03-03T05:21:42;99700.13;;;5.00;100.00
8069;BME280;4077;43.702;24.896;2023-03-03T05:24:13;99695.16;;;5.03;100.00
8069;BME280;4077;43.702;24.896;2023-03-03T05:26:39;99700.13;;;5.00;100.00
8069;BME280;4077;43.702;24.896;2023-03-03T05:29:05;99701.09;;;5.02;100.00
8069;BME280;4077;43.702;24.896;2023-03-03T05:31:31;99702.19;;;5.08;100.00
8069;BME280;4077;43.702;24.896;2023-03-03T05:33:56;99703.16;;;5.12;100.00
8069;BME280;4077;43.702;24.896;2023-03-03T05:36:22;99708.97;;;5.08;100.00
8069;BME280;4077;43.702;24.896;2023-03-03T05:38:47;99710.59;;;5.06;100.00
8069;BME280;4077;43.702;24.896;2023-03-03T05:41:13;99699.53;;;5.07;100.00
8069;BME280;4077;43.702;24.896;2023-03-03T05:43:38;99714.53;;;5.20;100.00
8069;BME280;4077;43.702;24.896;2023-03-03T05:46:04;99717.16;;;5.21;100.00
8069;BME280;4077;43.702;24.896;2023-03-03T05:48:29;99704.06;;;5.14;100.00
8069;BME280;4077;43.702;24.896;2023-03-03T05:50:57;99711.81;;;5.15;100.00
8069;BME280;4077;43.702;24.896;2023-03-03T05:53:24;99714.44;;;5.17;100.00
8069;BME280;4077;43.702;24.896;2023-03-03T05:55:49;99721.50;;;5.24;100.00
8069;BME280;4077;43.702;24.896;2023-03-03T05:58:14;99716.50;;;5.27;100.00
8069;BME280;4077;43.702;24.896;2023-03-03T06:00:40;99711.16;;;5.21;100.00
8069;BME280;4077;43.702;24.896;2023-03-03T06:03:05;99704.19;;;5.17;100.00
8069;BME280;4077;43.702;24.896;2023-03-03T06:05:31;99717.25;;;5.25;100.00
8069;BME280;4077;43.702;24.896;2023-03-03T06:07:56;99714.97;;;5.32;100.00
8069;BME280;4077;43.702;24.896;2023-03-03T06:10:22;99720.09;;;5.32;100.00
8069;BME280;4077;43.702;24.896;2023-03-03T06:12:47;99717.44;;;5.29;100.00
8069;BME280;4077;43.702;24.896;2023-03-03T06:15:13;99723.47;;;5.31;100.00
8069;BME280;4077;43.702;24.896;2023-03-03T06:17:38;99726.22;;;5.36;100.00
8069;BME280;4077;43.702;24.896;2023-03-03T06:20:04;99722.06;;;5.39;100.00
8069;BME280;4077;43.702;24.896;2023-03-03T06:22:31;99726.13;;;5.34;100.00
8069;BME280;4077;43.702;24.896;2023-03-03T06:24:56;99728.03;;;5.40;100.00
8069;BME280;4077;43.702;24.896;2023-03-03T06:27:22;99732.19;;;5.36;100.00
8069;BME280;4077;43.702;24.896;2023-03-03T06:29:47;99720.22;;;5.35;100.00
8069;BME280;4077;43.702;24.896;2023-03-03T06:32:13;99742.75;;;5.45;100.00
8069;BME280;4077;43.702;24.896;2023-03-03T06:34:38;99731.75;;;5.48;100.00
8069;BME280;4077;43.702;24.896;2023-03-03T06:37:04;99736.94;;;5.49;100.00
8069;BME280;4077;43.702;24.896;2023-03-03T06:39:30;99742.66;;;5.42;100.00
8069;BME280;4077;43.702;24.896;2023-03-03T06:41:55;99741.97;;;5.48;100.00
8069;BME280;4077;43.702;24.896;2023-03-03T06:44:21;99750.50;;;5.47;100.00
8069;BME280;4077;43.702;24.896;2023-03-03T06:46:46;99742.13;;;5.51;100.00
8069;BME280;4077;43.702;24.896;2023-03-03T06:49:12;99742.97;;;5.52;100.00
8069;BME280;4077;43.702;24.896;2023-03-03T06:51:38;99738.78;;;5.54;100.00
8069;BME280;4077;43.702;24.896;2023-03-03T06:54:16;99748.41;;;5.61;100.00
8069;BME280;4077;43.702;24.896;2023-03-03T06:56:43;99745.75;;;5.58;100.00
8069;BME280;4077;43.702;24.896;2023-03-03T06:59:20;99748.38;;;5.59;100.00
8069;BME280;4077;43.702;24.896;2023-03-03T07:01:48;99738.13;;;5.59;100.00
8069;BME280;4077;43.702;24.896;2023-03-03T07:04:27;99739.38;;;5.70;100.00
8069;BME280;4077;43.702;24.896;2023-03-03T07:06:56;99729.88;;;5.68;100.00
8069;BME280;4077;43.702;24.896;2023-03-03T07:09:25;99738.91;;;5.82;100.00
8069;BME280;4077;43.702;24.896;2023-03-03T07:11:56;99738.91;;;5.82;100.00
8069;BME280;4077;43.702;24.896;2023-03-03T07:14:24;99736.97;;;5.75;100.00
8069;BME280;4077;43.702;24.896;2023-03-03T07:16:57;99742.63;;;5.90;100.00
8069;BME280;4077;43.702;24.896;2023-03-03T07:21:54;99737.38;;;5.87;100.00
8069;BME280;4077;43.702;24.896;2023-03-03T07:26:54;99725.84;;;5.98;100.00
8069;BME280;4077;43.702;24.896;2023-03-03T07:29:25;99738.34;;;6.15;100.00
8069;BME280;4077;43.702;24.896;2023-03-03T07:31:53;99735.06;;;6.19;100.00
8069;BME280;4077;43.702;24.896;2023-03-03T07:34:22;99729.03;;;5.91;100.00
8069;BME280;4077;43.702;24.896;2023-03-03T07:36:57;99725.94;;;6.01;100.00
8069;BME280;4077;43.702;24.896;2023-03-03T07:39:35;99723.41;;;6.03;100.00
8069;BME280;4077;43.702;24.896;2023-03-03T07:44:35;99713.03;;;5.98;100.00
8069;BME280;4077;43.702;24.896;2023-03-03T07:47:26;99719.28;;;6.07;100.00
8069;BME280;4077;43.702;24.896;2023-03-03T07:50:14;99722.88;;;6.12;100.00
8069;BME280;4077;43.702;24.896;2023-03-03T07:52:43;99719.34;;;6.08;100.00
8069;BME280;4077;43.702;24.896;2023-03-03T07:55:44;99720.44;;;6.16;100.00
8069;BME280;4077;43.702;24.896;2023-03-03T08:03:07;99714.38;;;6.13;100.00
8069;BME280;4077;43.702;24.896;2023-03-03T08:05:46;99698.66;;;6.29;100.00
8069;BME280;4077;43.702;24.896;2023-03-03T08:08:29;99714.63;;;6.47;100.00
8069;BME280;4077;43.702;24.896;2023-03-03T08:10:57;99708.75;;;6.51;100.00
8069;BME280;4077;43.702;24.896;2023-03-03T08:13:39;99712.34;;;6.56;100.00
8069;BME280;4077;43.702;24.896;2023-03-03T08:18:43;99712.97;;;6.49;100.00
8069;BME280;4077;43.702;24.896;2023-03-03T08:21:23;99704.59;;;6.28;100.00
8069;BME280;4077;43.702;24.896;2023-03-03T08:23:50;99707.78;;;6.21;100.00
8069;BME280;4077;43.702;24.896;2023-03-03T08:26:22;99708.00;;;6.27;100.00
8069;BME280;4077;43.702;24.896;2023-03-03T08:28:48;99707.16;;;6.28;100.00
8069;BME280;4077;43.702;24.896;2023-03-03T08:31:14;99701.38;;;6.34;100.00
8069;BME280;4077;43.702;24.896;2023-03-03T08:33:42;99698.13;;;6.39;100.00
8069;BME280;4077;43.702;24.896;2023-03-03T08:36:08;99674.91;;;6.08;100.00
8069;BME280;4077;43.702;24.896;2023-03-03T08:38:33;99688.19;;;6.23;100.00
8069;BME280;4077;43.702;24.896;2023-03-03T08:40:59;99687.56;;;6.30;100.00
8069;BME280;4077;43.702;24.896;2023-03-03T08:43:25;99701.88;;;6.50;100.00
8069;BME280;4077;43.702;24.896;2023-03-03T08:45:53;99705.47;;;6.55;100.00
8069;BME280;4077;43.702;24.896;2023-03-03T08:48:20;99700.25;;;6.52;100.00
8069;BME280;4077;43.702;24.896;2023-03-03T08:50:46;99703.88;;;6.59;100.00
8069;BME280;4077;43.702;24.896;2023-03-03T08:53:12;99703.72;;;6.54;100.00
8069;BME280;4077;43.702;24.896;2023-03-03T08:55:39;99701.50;;;6.38;100.00
8069;BME280;4077;43.702;24.896;2023-03-03T08:58:04;99695.56;;;6.39;100.00
8069;BME280;4077;43.702;24.896;2023-03-03T09:00:30;99698.50;;;6.51;100.00
8069;BME280;4077;43.702;24.896;2023-03-03T09:02:55;99709.25;;;6.67;100.00
8069;BME280;4077;43.702;24.896;2023-03-03T09:05:22;99703.59;;;6.78;100.00
8069;BME280;4077;43.702;24.896;2023-03-03T09:07:48;99703.09;;;6.90;100.00
8069;BME280;4077;43.702;24.896;2023-03-03T09:10:18;99711.69;;;6.92;100.00
8069;BME280;4077;43.702;24.896;2023-03-03T09:12:46;99703.00;;;6.87;100.00
8069;BME280;4077;43.702;24.896;2023-03-03T09:15:35;99702.91;;;6.84;100.00
8069;BME280;4077;43.702;24.896;2023-03-03T09:23:20;99693.25;;;7.05;100.00
8069;BME280;4077;43.702;24.896;2023-03-03T09:25:51;99681.00;;;6.95;100.00
8069;BME280;4077;43.702;24.896;2023-03-03T09:28:31;99688.34;;;7.13;100.00
8069;BME280;4077;43.702;24.896;2023-03-03T09:31:00;99690.03;;;7.12;100.00
8069;BME280;4077;43.702;24.896;2023-03-03T09:33:46;99690.41;;;7.25;100.00
8069;BME280;4077;43.702;24.896;2023-03-03T09:38:49;99685.28;;;7.26;100.00
8069;BME280;4077;43.702;24.896;2023-03-03T09:54:52;99681.44;;;7.74;100.00
8069;BME280;4077;43.702;24.896;2023-03-03T10:03:13;99675.09;;;7.94;100.00
8069;BME280;4077;43.702;24.896;2023-03-03T10:08:24;99667.31;;;7.91;100.00
8069;BME280;4077;43.702;24.896;2023-03-03T10:14:14;99675.56;;;8.48;100.00
8069;BME280;4077;43.702;24.896;2023-03-03T10:19:58;99655.47;;;8.70;100.00
8069;BME280;4077;43.702;24.896;2023-03-03T10:25:13;99666.84;;;8.80;100.00
8069;BME280;4077;43.702;24.896;2023-03-03T10:30:51;99659.19;;;8.84;100.00
8069;BME280;4077;43.702;24.896;2023-03-03T10:41:37;99651.56;;;8.89;100.00
8069;BME280;4077;43.702;24.896;2023-03-03T10:47:10;99648.91;;;9.26;99.59
8069;BME280;4077;43.702;24.896;2023-03-03T10:49:59;99638.00;;;8.96;100.00
8069;BME280;4077;43.702;24.896;2023-03-03T10:52:49;99633.59;;;8.92;100.00
8069;BME280;4077;43.702;24.896;2023-03-03T11:12:08;99610.88;;;9.13;100.00
8069;BME280;4077;43.702;24.896;2023-03-03T11:14:49;99612.94;;;9.32;98.02
8069;BME280;4077;43.702;24.896;2023-03-03T11:19:54;99611.75;;;9.62;98.45
8069;BME280;4077;43.702;24.896;2023-03-03T11:27:53;99579.50;;;9.34;96.53
8069;BME280;4077;43.702;24.896;2023-03-03T11:33:10;99591.03;;;9.56;94.52
8069;BME280;4077;43.702;24.896;2023-03-03T11:35:44;99589.25;;;9.52;95.86
8069;BME280;4077;43.702;24.896;2023-03-03T11:41:41;99586.09;;;9.68;95.52
8069;BME280;4077;43.702;24.896;2023-03-03T11:44:28;99592.03;;;9.64;93.50
8069;BME280;4077;43.702;24.896;2023-03-03T11:47:03;99588.97;;;9.35;94.92
8069;BME280;4077;43.702;24.896;2023-03-03T11:49:39;99572.66;;;8.91;100.00
8069;BME280;4077;43.702;24.896;2023-03-03T11:52:36;99568.56;;;9.00;100.00
8069;BME280;4077;43.702;24.896;2023-03-03T11:55:16;99566.03;;;9.02;100.00
8069;BME280;4077;43.702;24.896;2023-03-03T11:57:54;99574.34;;;8.89;100.00
8069;BME280;4077;43.702;24.896;2023-03-03T12:23:57;99567.00;;;7.88;100.00
8069;BME280;4077;43.702;24.896;2023-03-03T12:28:40;99565.06;;;7.78;100.00
8069;BME280;4077;43.702;24.896;2023-03-03T12:33:59;99554.25;;;7.92;100.00
8069;BME280;4077;43.702;24.896;2023-03-03T12:36:49;99557.09;;;8.03;100.00
8069;BME280;4077;43.702;24.896;2023-03-03T12:42:30;99552.38;;;7.49;100.00
8069;BME280;4077;43.702;24.896;2023-03-03T12:44:57;99546.16;;;7.41;100.00
8069;BME280;4077;43.702;24.896;2023-03-03T12:47:36;99554.78;;;7.42;100.00
8069;BME280;4077;43.702;24.896;2023-03-03T13:08:29;99541.03;;;7.41;100.00
8069;BME280;4077;43.702;24.896;2023-03-03T13:11:33;99521.03;;;7.28;100.00
8069;BME280;4077;43.702;24.896;2023-03-03T13:14:14;99535.81;;;7.36;100.00
8069;BME280;4077;43.702;24.896;2023-03-03T13:16:45;99539.97;;;7.33;100.00
8069;BME280;4077;43.702;24.896;2023-03-03T13:19:28;99528.78;;;7.29;100.00
8069;BME280;4077;43.702;24.896;2023-03-03T13:22:01;99537.66;;;7.42;100.00
8069;BME280;4077;43.702;24.896;2023-03-03T13:24:44;99528.88;;;7.34;100.00
8069;BME280;4077;43.702;24.896;2023-03-03T13:27:16;99539.06;;;7.29;100.00
8069;BME280;4077;43.702;24.896;2023-03-03T13:29:58;99526.03;;;7.22;100.00
8069;BME280;4077;43.702;24.896;2023-03-03T13:32:56;99531.38;;;7.31;100.00
8069;BME280;4077;43.702;24.896;2023-03-03T13:35:43;99526.91;;;7.22;100.00
8069;BME280;4077;43.702;24.896;2023-03-03T13:38:25;99516.28;;;7.08;100.00
8069;BME280;4077;43.702;24.896;2023-03-03T13:43:49;99531.00;;;7.16;100.00
8069;BME280;4077;43.702;24.896;2023-03-03T13:46:40;99535.16;;;7.45;100.00
8069;BME280;4077;43.702;24.896;2023-03-03T13:49:24;99532.44;;;7.39;100.00
8069;BME280;4077;43.702;24.896;2023-03-03T13:59:56;99539.28;;;7.75;100.00
8069;BME280;4077;43.702;24.896;2023-03-03T14:05:16;99544.81;;;7.90;100.00
8069;BME280;4077;43.702;24.896;2023-03-03T14:13:28;99524.84;;;7.80;100.00
8069;BME280;4077;43.702;24.896;2023-03-03T14:18:38;99545.41;;;7.80;100.00
8069;BME280;4077;43.702;24.896;2023-03-03T14:21:34;99541.09;;;7.79;100.00
8069;BME280;4077;43.702;24.896;2023-03-03T14:24:19;99542.63;;;7.71;100.00
8069;BME280;4077;43.702;24.896;2023-03-03T14:26:57;99531.00;;;7.50;100.00
8069;BME280;4077;43.702;24.896;2023-03-03T14:31:59;99524.56;;;7.33;100.00
8069;BME280;4077;43.702;24.896;2023-03-03T14:34:39;99532.97;;;7.26;100.00
8069;BME280;4077;43.702;24.896;2023-03-03T14:37:27;99527.75;;;7.23;100.00
8069;BME280;4077;43.702;24.896;2023-03-03T14:40:06;99532.88;;;7.23;100.00
8069;BME280;4077;43.702;24.896;2023-03-03T14:42:38;99525.69;;;7.09;100.00
8069;BME280;4077;43.702;24.896;2023-03-03T14:45:19;99523.19;;;7.12;100.00
8069;BME280;4077;43.702;24.896;2023-03-03T14:47:45;99517.09;;;7.07;100.00
8069;BME280;4077;43.702;24.896;2023-03-03T14:50:31;99523.31;;;7.17;100.00
8069;BME280;4077;43.702;24.896;2023-03-03T14:53:19;99531.38;;;7.31;100.00
8069;BME280;4077;43.702;24.896;2023-03-03T14:55:47;99516.53;;;7.19;100.00
8069;BME280;4077;43.702;24.896;2023-03-03T15:00:49;99517.97;;;7.08;100.00
8069;BME280;4077;43.702;24.896;2023-03-03T15:03:22;99513.72;;;7.08;100.00
8069;BME280;4077;43.702;24.896;2023-03-03T15:05:54;99511.00;;;7.04;100.00
8069;BME280;4077;43.702;24.896;2023-03-03T15:08:40;99512.72;;;7.03;100.00
8069;BME280;4077;43.702;24.896;2023-03-03T15:11:19;99513.94;;;6.86;100.00
8069;BME280;4077;43.702;24.896;2023-03-03T15:13:45;99509.81;;;6.91;100.00
8069;BME280;4077;43.702;24.896;2023-03-03T15:16:17;99508.19;;;6.93;100.00
8069;BME280;4077;43.702;24.896;2023-03-03T15:24:53;99508.31;;;6.66;100.00
8069;BME280;4077;43.702;24.896;2023-03-03T15:27:36;99504.25;;;6.44;100.00
8069;BME280;4077;43.702;24.896;2023-03-03T15:30:29;99520.84;;;6.55;100.00
8069;BME280;4077;43.702;24.896;2023-03-03T15:33:04;99518.19;;;6.52;100.00
8069;BME280;4077;43.702;24.896;2023-03-03T15:43:33;99513.53;;;6.39;100.00
8069;BME280;4077;43.702;24.896;2023-03-03T15:54:27;99524.22;;;6.54;100.00
8069;BME280;4077;43.702;24.896;2023-03-03T15:56:56;99527.63;;;6.53;100.00
8069;BME280;4077;43.702;24.896;2023-03-03T16:04:48;99524.06;;;6.48;100.00
8069;BME280;4077;43.702;24.896;2023-03-03T16:07:42;99526.41;;;6.41;100.00
8069;BME280;4077;43.702;24.896;2023-03-03T16:15:33;99525.44;;;6.37;100.00
8069;BME280;4077;43.702;24.896;2023-03-03T16:21:43;99533.13;;;6.37;100.00
8069;BME280;4077;43.702;24.896;2023-03-03T16:29:23;99540.81;;;6.37;100.00
8069;BME280;4077;43.702;24.896;2023-03-03T16:32:01;99532.63;;;6.20;100.00
8069;BME280;4077;43.702;24.896;2023-03-03T16:37:33;99544.66;;;6.23;100.00
8069;BME280;4077;43.702;24.896;2023-03-03T16:40:25;99542.97;;;6.23;100.00
8069;BME280;4077;43.702;24.896;2023-03-03T16:42:58;99543.84;;;6.24;100.00
8069;BME280;4077;43.702;24.896;2023-03-03T16:45:36;99551.53;;;6.24;100.00
8069;BME280;4077;43.702;24.896;2023-03-03T16:53:27;99553.50;;;6.33;100.00
8069;BME280;4077;43.702;24.896;2023-03-03T16:56:09;99556.00;;;6.31;100.00
8069;BME280;4077;43.702;24.896;2023-03-03T17:01:20;99550.81;;;6.28;100.00
8069;BME280;4077;43.702;24.896;2023-03-03T17:04:01;99557.66;;;6.29;100.00
8069;BME280;4077;43.702;24.896;2023-03-03T17:06:54;99551.78;;;6.32;100.00
8069;BME280;4077;43.702;24.896;2023-03-03T17:12:29;99558.22;;;6.19;100.00
8069;BME280;4077;43.702;24.896;2023-03-03T17:17:43;99559.13;;;6.21;100.00
8069;BME280;4077;43.702;24.896;2023-03-03T17:25:44;99557.41;;;6.20;100.00
8069;BME280;4077;43.702;24.896;2023-03-03T17:28:29;99560.69;;;6.16;100.00
8069;BME280;4077;43.702;24.896;2023-03-03T17:31:19;99564.25;;;6.21;100.00
8069;BME280;4077;43.702;24.896;2023-03-03T17:34:02;99566.00;;;6.22;100.00
8069;BME280;4077;43.702;24.896;2023-03-03T17:36:49;99566.81;;;6.21;100.00
8069;BME280;4077;43.702;24.896;2023-03-03T17:40:08;99558.94;;;6.15;100.00
8069;BME280;4077;43.702;24.896;2023-03-03T17:45:19;99562.16;;;6.08;100.00
8069;BME280;4077;43.702;24.896;2023-03-03T18:02:05;99578.69;;;5.90;100.00
8069;BME280;4077;43.702;24.896;2023-03-03T18:05:10;99579.19;;;5.80;100.00
8069;BME280;4077;43.702;24.896;2023-03-03T18:10:52;99573.25;;;5.81;100.00
8069;BME280;4077;43.702;24.896;2023-03-03T18:21:50;99558.41;;;5.44;100.00